Time;durP1;ratioP1;P1;durP2;ratioP2;P2;SDS_P1;SDS_P2;PMS_P1;PMS_P2;Temp;Humidity;BMP_temperature;BMP_pressure;BME280_temperature;BME280_humidity;BME280_pressure;Samples;Min_cycle;Max_cycle;Signal;HPM_P1;HPM_P2
2021/01/03 00:00:33;;;;;;;8.60;7.70;;;2.40;99.90;;;;;;5132467;27;20691;-82
2021/01/03 00:03:00;;;;;;;10.03;7.73;;;2.40;99.90;;;;;;5132939;27;20250;-83
2021/01/03 00:05:29;;;;;;;9.20;7.90;;;2.40;99.90;;;;;;5132195;27;20300;-82
2021/01/03 00:07:55;;;;;;;8.23;7.43;;;2.40;99.90;;;;;;5132215;27;20233;-83
2021/01/03 00:10:23;;;;;;;9.63;7.90;;;2.40;99.90;;;;;;5132258;27;20206;-83
2021/01/03 00:12:49;;;;;;;10.53;8.37;;;2.40;99.90;;;;;;5132670;27;20626;-82
2021/01/03 00:15:18;;;;;;;8.93;8.03;;;2.40;99.90;;;;;;5132304;27;20209;-82
2021/01/03 00:17:46;;;;;;;10.50;8.23;;;2.40;99.90;;;;;;5132566;27;20338;-82
2021/01/03 00:20:17;;;;;;;8.37;7.57;;;2.40;99.90;;;;;;5132242;27;20205;-81
2021/01/03 00:22:43;;;;;;;9.37;7.83;;;2.40;99.90;;;;;;5120956;27;20208;-82
2021/01/03 00:25:11;;;;;;;8.77;7.73;;;2.40;99.90;;;;;;5111773;28;20225;-82
2021/01/03 00:27:38;;;;;;;9.23;7.67;;;2.40;99.90;;;;;;5111948;28;20258;-82
2021/01/03 00:30:07;;;;;;;11.33;8.00;;;2.40;99.90;;;;;;5111616;28;20234;-82
2021/01/03 00:32:34;;;;;;;10.03;7.67;;;2.40;99.90;;;;;;5111416;28;20577;-82
2021/01/03 00:35:01;;;;;;;10.37;8.30;;;2.40;99.90;;;;;;5111633;27;20225;-80
2021/01/03 00:37:28;;;;;;;8.47;7.67;;;2.50;99.90;;;;;;5111233;28;20209;-83
2021/01/03 00:39:54;;;;;;;10.13;8.13;;;2.50;99.90;;;;;;5111896;28;20246;-79
2021/01/03 00:42:20;;;;;;;9.67;8.20;;;2.50;99.90;;;;;;5111133;28;20206;-79
2021/01/03 00:44:47;;;;;;;9.33;8.30;;;2.50;99.90;;;;;;5111206;28;20202;-79
2021/01/03 00:47:13;;;;;;;9.50;7.70;;;2.50;99.90;;;;;;5111171;28;20206;-80
2021/01/03 00:49:39;;;;;;;10.17;8.13;;;2.50;99.90;;;;;;5111264;28;20242;-79
2021/01/03 00:52:07;;;;;;;11.43;8.73;;;2.50;99.90;;;;;;5110996;28;20209;-83
2021/01/03 00:54:34;;;;;;;8.77;7.87;;;2.50;99.90;;;;;;5111993;28;20245;-84
2021/01/03 00:57:00;;;;;;;9.90;8.90;;;2.50;99.90;;;;;;5111520;28;20243;-83
2021/01/03 00:59:26;;;;;;;9.50;8.50;;;2.40;99.90;;;;;;5111512;28;20309;-83
2021/01/03 01:01:53;;;;;;;10.83;8.93;;;2.40;99.90;;;;;;5111686;28;20206;-82
2021/01/03 01:04:19;;;;;;;9.70;8.27;;;2.40;99.90;;;;;;5111279;28;20212;-82
2021/01/03 01:06:45;;;;;;;10.47;8.37;;;2.30;99.90;;;;;;5111379;28;20841;-84
2021/01/03 01:09:13;;;;;;;10.97;8.47;;;2.30;99.90;;;;;;5110131;28;20322;-84
2021/01/03 01:11:40;;;;;;;11.67;8.97;;;2.30;99.90;;;;;;5111577;28;20206;-83
2021/01/03 01:14:07;;;;;;;10.13;7.97;;;2.30;99.90;;;;;;5111176;28;20202;-83
2021/01/03 01:16:33;;;;;;;10.43;8.87;;;2.30;99.90;;;;;;5111609;28;20648;-84
2021/01/03 01:19:00;;;;;;;8.87;7.57;;;2.30;99.90;;;;;;5111414;28;20216;-84
2021/01/03 01:21:27;;;;;;;9.53;8.07;;;2.20;99.90;;;;;;5111057;28;20589;-83
2021/01/03 01:23:53;;;;;;;9.43;8.10;;;2.20;99.90;;;;;;5111332;28;20206;-83
2021/01/03 01:26:20;;;;;;;9.60;8.40;;;2.20;99.90;;;;;;5111146;28;20233;-83
2021/01/03 01:28:46;;;;;;;9.50;7.87;;;2.20;99.90;;;;;;5111217;28;20656;-84
2021/01/03 01:31:13;;;;;;;8.63;7.83;;;2.20;99.90;;;;;;5110727;28;20683;-82
2021/01/03 01:33:39;;;;;;;10.60;8.57;;;2.20;99.90;;;;;;5111196;28;20202;-83
2021/01/03 01:36:06;;;;;;;9.33;8.10;;;2.20;99.90;;;;;;5110470;28;20271;-82
2021/01/03 01:38:33;;;;;;;11.10;8.50;;;2.20;99.90;;;;;;5112000;28;20213;-87
2021/01/03 01:40:59;;;;;;;10.57;8.53;;;2.20;99.90;;;;;;5111629;28;20660;-80
2021/01/03 01:43:27;;;;;;;9.33;8.03;;;2.20;99.90;;;;;;5109882;28;20212;-80
2021/01/03 01:45:53;;;;;;;10.27;8.80;;;2.20;99.90;;;;;;5109954;28;20631;-81
2021/01/03 01:48:23;;;;;;;11.43;8.60;;;2.20;99.90;;;;;;5110041;27;20305;-83
2021/01/03 01:50:52;;;;;;;11.57;8.20;;;2.30;99.90;;;;;;5110748;28;20259;-83
2021/01/03 01:53:25;;;;;;;11.67;9.03;;;2.30;99.90;;;;;;5110462;28;20206;-83
2021/01/03 01:55:56;;;;;;;10.50;8.77;;;2.30;99.90;;;;;;5110407;28;20257;-82
2021/01/03 01:58:35;;;;;;;10.77;8.63;;;2.20;99.90;;;;;;5110474;28;20728;-83
2021/01/03 02:01:05;;;;;;;10.10;7.67;;;2.20;99.90;;;;;;5112267;27;20194;-85
2021/01/03 02:03:37;;;;;;;9.53;8.07;;;2.30;99.90;;;;;;5122183;27;20213;-85
2021/01/03 02:06:11;;;;;;;12.67;9.73;;;2.20;99.90;;;;;;5116596;27;20688;-84
2021/01/03 02:08:43;;;;;;;10.00;8.20;;;2.20;99.90;;;;;;5111198;28;20756;-85
2021/01/03 02:11:13;;;;;;;10.03;8.20;;;2.20;99.90;;;;;;5111407;28;20277;-85
2021/01/03 02:13:42;;;;;;;12.67;9.10;;;2.10;99.90;;;;;;5111534;28;20343;-85
2021/01/03 02:16:12;;;;;;;10.30;7.83;;;2.10;99.90;;;;;;5110912;28;20294;-87
2021/01/03 02:18:39;;;;;;;9.80;8.13;;;2.10;99.90;;;;;;5111881;28;20205;-88
2021/01/03 02:21:21;;;;;;;11.83;9.20;;;2.10;99.90;;;;;;5111497;28;20567;-88
2021/01/03 02:24:00;;;;;;;13.67;9.37;;;2.10;99.90;;;;;;5111507;28;20197;-87
2021/01/03 02:26:30;;;;;;;10.87;8.30;;;2.10;99.90;;;;;;5111306;28;20190;-87
2021/01/03 02:28:57;;;;;;;13.13;8.67;;;2.00;99.90;;;;;;5111658;28;20270;-88
2021/01/03 02:31:29;;;;;;;11.93;8.83;;;2.00;99.90;;;;;;5111292;28;20721;-87
2021/01/03 02:33:57;;;;;;;11.80;8.50;;;2.00;99.90;;;;;;5110114;28;20589;-83
2021/01/03 02:36:27;;;;;;;10.83;7.67;;;2.00;99.90;;;;;;5109757;28;20824;-82
2021/01/03 02:39:06;;;;;;;10.80;8.00;;;1.90;99.90;;;;;;5109295;28;20202;-82
2021/01/03 02:41:33;;;;;;;9.90;7.90;;;1.90;99.90;;;;;;5109333;28;20246;-83
2021/01/03 02:44:00;;;;;;;12.30;8.60;;;2.00;99.90;;;;;;5109607;28;20212;-82
2021/01/03 02:46:28;;;;;;;13.43;7.90;;;1.90;99.90;;;;;;5109389;28;20205;-82
2021/01/03 02:48:54;;;;;;;12.93;8.70;;;1.90;99.90;;;;;;5109431;28;20233;-82
2021/01/03 02:51:23;;;;;;;11.83;8.00;;;1.90;99.90;;;;;;5109252;28;20200;-82
2021/01/03 02:53:49;;;;;;;12.83;8.47;;;1.90;99.90;;;;;;5109566;28;20570;-82
2021/01/03 02:56:15;;;;;;;11.97;8.60;;;1.90;99.90;;;;;;5108938;28;20720;-83
2021/01/03 02:58:43;;;;;;;12.70;8.67;;;1.90;99.90;;;;;;5109034;28;20228;-83
2021/01/03 03:01:09;;;;;;;14.00;9.20;;;2.00;99.90;;;;;;5109280;28;20212;-82
2021/01/03 03:03:35;;;;;;;12.73;8.87;;;2.00;99.90;;;;;;5109362;28;20202;-83
2021/01/03 03:06:02;;;;;;;12.73;8.77;;;2.00;99.90;;;;;;5109182;28;20297;-81
2021/01/03 03:08:29;;;;;;;12.57;8.50;;;2.00;99.90;;;;;;5108841;28;20286;-80
2021/01/03 03:10:56;;;;;;;10.60;7.83;;;1.90;99.90;;;;;;5108811;28;20206;-83
2021/01/03 03:13:22;;;;;;;11.90;8.40;;;2.00;99.90;;;;;;5109112;28;20241;-83
2021/01/03 03:15:49;;;;;;;11.83;8.40;;;1.90;99.90;;;;;;5109148;28;20206;-83
2021/01/03 03:18:16;;;;;;;9.80;7.80;;;2.00;99.90;;;;;;5109242;28;20206;-83
2021/01/03 03:20:42;;;;;;;11.00;8.00;;;2.00;99.90;;;;;;5109430;28;20208;-83
2021/01/03 03:23:09;;;;;;;11.90;8.53;;;2.00;99.90;;;;;;5109409;28;20528;-83
2021/01/03 03:25:35;;;;;;;11.37;8.20;;;2.10;99.90;;;;;;5109508;28;20339;-83
2021/01/03 03:28:01;;;;;;;12.20;8.73;;;2.00;99.90;;;;;;5109703;28;20214;-83
2021/01/03 03:30:27;;;;;;;14.40;8.83;;;2.00;99.90;;;;;;5109494;28;20238;-86
2021/01/03 03:32:55;;;;;;;12.50;8.93;;;2.00;99.90;;;;;;5110955;28;20229;-85
2021/01/03 03:35:24;;;;;;;12.50;9.20;;;2.10;99.90;;;;;;5113355;28;20683;-84
2021/01/03 03:37:51;;;;;;;10.60;8.43;;;2.10;99.90;;;;;;5113712;28;20218;-84
2021/01/03 03:40:18;;;;;;;11.80;8.37;;;2.10;99.90;;;;;;5113518;28;20206;-83
2021/01/03 03:42:44;;;;;;;10.43;8.40;;;2.10;99.90;;;;;;5113013;27;20994;-83
2021/01/03 03:45:11;;;;;;;10.90;7.57;;;2.10;99.90;;;;;;5112978;28;20206;-81
2021/01/03 03:47:38;;;;;;;10.63;8.27;;;2.10;99.90;;;;;;5113598;28;20202;-84
2021/01/03 03:50:08;;;;;;;9.10;7.30;;;2.10;99.90;;;;;;5112947;28;20286;-83
2021/01/03 03:52:34;;;;;;;9.60;6.73;;;2.00;99.90;;;;;;5113341;28;20200;-84
2021/01/03 03:55:01;;;;;;;10.27;7.33;;;2.00;99.90;;;;;;5113400;28;20212;-83
2021/01/03 03:57:27;;;;;;;9.60;7.37;;;2.10;99.90;;;;;;5113261;28;20206;-84
2021/01/03 03:59:53;;;;;;;8.23;6.83;;;2.10;99.90;;;;;;5113170;27;20266;-81
2021/01/03 04:02:20;;;;;;;8.87;7.10;;;2.10;99.90;;;;;;5112098;28;20285;-81
2021/01/03 04:04:46;;;;;;;9.13;6.70;;;2.10;99.90;;;;;;5112378;28;20241;-83
2021/01/03 04:07:13;;;;;;;9.17;6.90;;;2.10;99.90;;;;;;5112486;28;20580;-82
2021/01/03 04:09:40;;;;;;;10.53;6.90;;;2.10;99.90;;;;;;5112790;28;20238;-85
2021/01/03 04:12:06;;;;;;;8.30;7.20;;;2.10;99.90;;;;;;5111901;28;20213;-81
2021/01/03 04:14:33;;;;;;;9.57;7.30;;;2.10;99.90;;;;;;5111819;27;20206;-81
2021/01/03 04:17:02;;;;;;;8.67;6.87;;;2.10;99.90;;;;;;5112152;28;20255;-82
2021/01/03 04:19:29;;;;;;;7.37;6.53;;;2.10;99.90;;;;;;5111634;28;20206;-83
2021/01/03 04:21:57;;;;;;;8.10;6.30;;;2.20;99.90;;;;;;5112794;28;20235;-84
2021/01/03 04:24:25;;;;;;;7.57;6.37;;;2.20;99.90;;;;;;5112799;28;20202;-83
2021/01/03 04:26:55;;;;;;;8.27;6.77;;;2.10;99.90;;;;;;5112638;28;20206;-84
2021/01/03 04:29:21;;;;;;;8.40;6.53;;;2.10;99.90;;;;;;5112400;28;20252;-84
2021/01/03 04:31:53;;;;;;;6.40;5.60;;;2.20;99.90;;;;;;5112735;28;20293;-83
2021/01/03 04:34:20;;;;;;;8.77;6.90;;;2.20;99.90;;;;;;5112530;28;20331;-84
2021/01/03 04:36:49;;;;;;;7.30;6.33;;;2.20;99.90;;;;;;5112416;28;20289;-83
2021/01/03 04:39:16;;;;;;;8.03;6.23;;;2.20;99.90;;;;;;5112417;28;20221;-84
2021/01/03 04:41:44;;;;;;;9.77;6.90;;;2.30;99.90;;;;;;5112201;28;20293;-84
2021/01/03 04:44:19;;;;;;;9.50;7.30;;;2.20;99.90;;;;;;5112350;28;20208;-83
2021/01/03 04:46:46;;;;;;;8.23;7.00;;;2.20;99.90;;;;;;5112143;28;20281;-87
2021/01/03 04:49:21;;;;;;;8.80;7.17;;;2.20;99.90;;;;;;5112100;28;20635;-84
2021/01/03 04:52:30;;;;;;;7.90;6.33;;;2.20;99.90;;;;;;5112412;28;20197;-83
2021/01/03 04:55:09;;;;;;;8.90;7.13;;;2.20;99.90;;;;;;5111767;28;20279;-81
2021/01/03 04:57:44;;;;;;;9.73;6.90;;;2.20;99.90;;;;;;5110914;28;20199;-81
2021/01/03 05:00:11;;;;;;;7.77;6.33;;;2.20;99.90;;;;;;5111028;28;20193;-81
2021/01/03 05:03:09;;;;;;;9.40;6.87;;;2.30;99.90;;;;;;5110559;28;20686;-81
2021/01/03 05:05:37;;;;;;;8.67;6.87;;;2.20;99.90;;;;;;5110692;28;20388;-81
2021/01/03 05:08:19;;;;;;;8.63;6.90;;;2.20;99.90;;;;;;5110716;28;20218;-81
2021/01/03 05:10:46;;;;;;;9.23;7.30;;;2.30;99.90;;;;;;5111837;28;20206;-84
2021/01/03 05:13:28;;;;;;;8.47;6.40;;;2.20;99.90;;;;;;5110473;28;20732;-81
2021/01/03 05:15:55;;;;;;;10.00;7.43;;;2.20;99.90;;;;;;5110600;28;20255;-82
2021/01/03 05:18:22;;;;;;;9.10;6.73;;;2.20;99.90;;;;;;5110672;28;20239;-82
2021/01/03 05:20:53;;;;;;;9.30;7.07;;;2.20;99.90;;;;;;5110434;28;20362;-84
2021/01/03 05:23:22;;;;;;;9.27;7.23;;;2.30;99.90;;;;;;5110594;28;20196;-83
2021/01/03 05:25:50;;;;;;;9.40;7.33;;;2.20;99.90;;;;;;5111007;27;20214;-82
2021/01/03 05:28:21;;;;;;;9.37;6.83;;;2.20;99.90;;;;;;5111537;28;20202;-87
2021/01/03 05:30:48;;;;;;;8.77;7.03;;;2.20;99.90;;;;;;5112858;28;20246;-87
2021/01/03 05:33:21;;;;;;;10.60;7.47;;;2.20;99.90;;;;;;5112666;28;20206;-87
2021/01/03 05:35:47;;;;;;;9.63;6.97;;;2.10;99.90;;;;;;5112524;28;20199;-87
2021/01/03 05:38:35;;;;;;;11.77;7.23;;;2.20;99.90;;;;;;5112409;28;20206;-86
2021/01/03 05:41:10;;;;;;;10.00;7.47;;;2.20;99.90;;;;;;5112620;28;20560;-88
2021/01/03 05:43:37;;;;;;;9.80;7.60;;;2.20;99.90;;;;;;5112153;28;20204;-81
2021/01/03 05:46:17;;;;;;;8.20;6.60;;;2.10;99.90;;;;;;5110154;28;20289;-80
2021/01/03 05:48:45;;;;;;;8.10;6.43;;;2.10;99.90;;;;;;5109892;28;20269;-80
2021/01/03 05:51:35;;;;;;;7.73;6.27;;;2.10;99.90;;;;;;5109715;28;20405;-80
2021/01/03 05:54:04;;;;;;;11.07;7.13;;;2.10;99.90;;;;;;5110228;28;20186;-89
2021/01/03 05:56:33;;;;;;;10.13;7.23;;;2.10;99.90;;;;;;5111744;28;20764;-88
2021/01/03 05:59:00;;;;;;;9.30;7.30;;;2.10;99.90;;;;;;5112259;28;20230;-88
2021/01/03 06:01:29;;;;;;;10.03;6.83;;;2.10;99.90;;;;;;5112038;28;20202;-83
2021/01/03 06:04:05;;;;;;;9.13;6.90;;;2.10;99.90;;;;;;5110380;28;20206;-84
2021/01/03 06:06:47;;;;;;;10.47;7.00;;;2.10;99.90;;;;;;5109725;27;20670;-83
2021/01/03 06:09:14;;;;;;;8.83;6.97;;;2.20;99.90;;;;;;5110397;28;20217;-83
2021/01/03 06:11:41;;;;;;;8.87;6.87;;;2.10;99.90;;;;;;5110083;28;20206;-83
2021/01/03 06:14:10;;;;;;;9.00;6.80;;;2.10;99.90;;;;;;5110314;28;20238;-82
2021/01/03 06:16:47;;;;;;;9.23;7.27;;;2.20;99.90;;;;;;5109546;28;20225;-82
2021/01/03 06:19:28;;;;;;;9.50;6.87;;;2.10;99.90;;;;;;5109948;28;20277;-82
2021/01/03 06:21:54;;;;;;;8.07;6.23;;;2.10;99.90;;;;;;5109686;28;20289;-82
2021/01/03 06:24:25;;;;;;;9.03;6.70;;;2.10;99.90;;;;;;5109398;28;20202;-82
2021/01/03 06:26:54;;;;;;;7.03;6.33;;;2.00;99.90;;;;;;5109282;28;20697;-83
2021/01/03 06:29:27;;;;;;;8.93;6.73;;;2.00;99.90;;;;;;5109380;28;20692;-82
2021/01/03 06:32:31;;;;;;;8.73;6.97;;;2.00;99.90;;;;;;5109359;28;20220;-82
2021/01/03 06:35:03;;;;;;;10.03;6.40;;;2.10;99.90;;;;;;5109196;28;20194;-83
2021/01/03 06:37:41;;;;;;;8.00;7.00;;;2.00;99.90;;;;;;5109508;28;20277;-83
2021/01/03 06:40:14;;;;;;;9.00;6.40;;;2.10;99.90;;;;;;5109344;28;20331;-82
2021/01/03 06:43:31;;;;;;;8.70;6.33;;;2.10;99.90;;;;;;5109221;28;20281;-82
2021/01/03 06:46:46;;;;;;;8.23;7.00;;;2.10;99.90;;;;;;5109413;28;20194;-81
2021/01/03 06:49:36;;;;;;;7.97;6.27;;;2.00;99.90;;;;;;5108861;28;20262;-83
2021/01/03 06:52:33;;;;;;;9.03;6.43;;;2.10;99.90;;;;;;5108931;28;20635;-80
2021/01/03 06:55:39;;;;;;;9.17;6.50;;;2.10;99.90;;;;;;5093369;27;20231;-80
2021/01/03 06:58:49;;;;;;;10.00;6.60;;;2.10;99.90;;;;;;5103111;27;20238;-79
2021/01/03 07:01:21;;;;;;;8.77;6.50;;;2.10;99.90;;;;;;5108769;28;20190;-81
2021/01/03 07:03:50;;;;;;;6.17;5.57;;;2.10;99.90;;;;;;5109035;28;20191;-83
2021/01/03 07:06:18;;;;;;;6.23;5.63;;;2.10;99.90;;;;;;5109382;28;20294;-82
2021/01/03 07:08:47;;;;;;;8.47;6.50;;;2.10;99.90;;;;;;5111534;28;20293;-82
2021/01/03 07:11:43;;;;;;;9.77;6.67;;;2.10;99.90;;;;;;5113219;28;20292;-82
2021/01/03 07:14:12;;;;;;;7.77;5.83;;;2.10;99.90;;;;;;5112913;28;20200;-81
2021/01/03 07:16:48;;;;;;;9.10;6.70;;;2.10;99.90;;;;;;5112947;28;20288;-83
2021/01/03 07:19:25;;;;;;;10.10;6.37;;;2.10;99.90;;;;;;5113289;28;20190;-82
2021/01/03 07:21:51;;;;;;;8.00;5.90;;;2.10;99.90;;;;;;5112768;28;20201;-82
2021/01/03 07:24:31;;;;;;;6.10;5.50;;;2.10;99.90;;;;;;5113143;28;20209;-85
2021/01/03 07:27:35;;;;;;;6.83;5.90;;;2.10;99.90;;;;;;5114059;28;20190;-85
2021/01/03 07:30:37;;;;;;;7.97;6.17;;;2.10;99.90;;;;;;5104302;27;20229;-84
2021/01/03 07:33:19;;;;;;;5.77;5.20;;;2.10;99.90;;;;;;5114397;28;20289;-85
2021/01/03 07:35:47;;;;;;;6.77;5.23;;;2.10;99.90;;;;;;5114252;28;20281;-86
2021/01/03 07:38:29;;;;;;;8.03;6.13;;;2.10;99.90;;;;;;5114494;28;20209;-85
2021/01/03 07:41:04;;;;;;;8.03;6.03;;;2.10;99.90;;;;;;5114425;27;20658;-85
2021/01/03 07:43:45;;;;;;;6.50;5.50;;;2.10;99.90;;;;;;5113579;28;20219;-82
2021/01/03 07:46:42;;;;;;;10.60;6.33;;;2.10;99.90;;;;;;5112178;28;20624;-82
2021/01/03 07:49:38;;;;;;;8.37;6.30;;;2.10;99.90;;;;;;5112272;28;20699;-82
2021/01/03 07:52:41;;;;;;;8.57;5.90;;;2.10;99.90;;;;;;5112260;28;20713;-82
2021/01/03 07:55:15;;;;;;;5.97;5.37;;;2.00;99.90;;;;;;5112726;28;20526;-82
2021/01/03 07:57:42;;;;;;;8.93;6.07;;;2.00;99.90;;;;;;5112337;28;20312;-82
2021/01/03 08:00:10;;;;;;;7.77;5.80;;;2.00;99.90;;;;;;5112208;28;20663;-82
2021/01/03 08:02:39;;;;;;;7.20;6.30;;;2.00;99.90;;;;;;5112171;28;20293;-85
2021/01/03 08:05:06;;;;;;;8.00;6.07;;;2.00;99.90;;;;;;5118506;27;20612;-83
2021/01/03 08:07:34;;;;;;;7.93;6.10;;;2.10;99.90;;;;;;5120647;27;20195;-84
2021/01/03 08:10:08;;;;;;;6.83;5.97;;;2.20;99.90;;;;;;5113460;28;20328;-86
2021/01/03 08:12:40;;;;;;;8.60;6.90;;;2.20;99.90;;;;;;5113879;28;20210;-89
2021/01/03 08:15:11;;;;;;;8.60;6.10;;;2.20;99.90;;;;;;5117559;27;20206;-90
2021/01/03 08:17:41;;;;;;;6.97;6.23;;;2.30;99.90;;;;;;5134430;27;20289;-82
2021/01/03 08:20:10;;;;;;;8.23;6.77;;;2.30;99.90;;;;;;5131359;27;20190;-80
2021/01/03 08:22:38;;;;;;;7.97;6.40;;;2.30;99.90;;;;;;5132224;27;20285;-80
2021/01/03 08:25:05;;;;;;;7.40;6.57;;;2.30;99.90;;;;;;5132120;27;20201;-80
2021/01/03 08:27:40;;;;;;;9.93;6.83;;;2.20;99.90;;;;;;5131602;27;20741;-80
2021/01/03 08:30:11;;;;;;;9.10;7.00;;;2.20;99.90;;;;;;5133039;27;20262;-84
2021/01/03 08:32:39;;;;;;;8.23;7.07;;;2.10;99.90;;;;;;5132406;27;20217;-82
2021/01/03 08:35:16;;;;;;;8.50;6.80;;;2.10;99.90;;;;;;5129476;27;20626;-82
2021/01/03 08:37:45;;;;;;;10.83;8.10;;;2.10;99.90;;;;;;5112180;28;20202;-86
2021/01/03 08:40:20;;;;;;;10.30;7.60;;;2.00;99.90;;;;;;5112663;28;20210;-86
2021/01/03 08:42:53;;;;;;;9.83;7.77;;;2.10;99.90;;;;;;5112622;28;20660;-85
2021/01/03 08:45:26;;;;;;;11.03;7.47;;;2.10;99.90;;;;;;5112432;28;20306;-85
2021/01/03 08:47:53;;;;;;;9.83;7.70;;;2.10;99.90;;;;;;5112252;28;20647;-84
2021/01/03 08:50:21;;;;;;;8.37;7.13;;;2.10;99.90;;;;;;5111780;28;20290;-83
2021/01/03 08:52:57;;;;;;;9.97;7.77;;;2.10;99.90;;;;;;5111656;28;20232;-83
2021/01/03 08:55:25;;;;;;;9.80;7.47;;;2.10;99.90;;;;;;5111528;28;20272;-83
2021/01/03 08:57:57;;;;;;;8.23;6.47;;;2.10;99.90;;;;;;5111812;28;20221;-83
2021/01/03 09:00:26;;;;;;;9.80;7.43;;;2.10;99.90;;;;;;5111861;28;20295;-83
2021/01/03 09:02:58;;;;;;;9.77;7.00;;;2.10;99.90;;;;;;5110978;28;20668;-80
2021/01/03 09:05:29;;;;;;;11.00;7.40;;;2.00;99.90;;;;;;5110809;27;20202;-80
2021/01/03 09:07:57;;;;;;;9.30;6.93;;;2.10;99.90;;;;;;5110634;28;20206;-80
2021/01/03 09:10:31;;;;;;;11.20;7.50;;;2.10;99.90;;;;;;5110103;28;20237;-81
2021/01/03 09:13:07;;;;;;;9.67;7.37;;;2.10;99.90;;;;;;5110456;28;20218;-83
2021/01/03 09:15:38;;;;;;;7.83;6.83;;;2.10;99.90;;;;;;5110706;28;20210;-81
2021/01/03 09:18:10;;;;;;;8.50;7.37;;;2.10;99.90;;;;;;5110586;28;20214;-79
2021/01/03 09:20:42;;;;;;;11.83;7.60;;;2.10;99.90;;;;;;5111852;28;20194;-86
2021/01/03 09:23:13;;;;;;;13.37;7.80;;;2.10;99.90;;;;;;5122817;27;20183;-82
2021/01/03 09:25:41;;;;;;;9.20;7.30;;;2.10;99.90;;;;;;5124900;27;20196;-79
2021/01/03 09:28:11;;;;;;;9.20;7.33;;;2.10;99.90;;;;;;5118679;27;20194;-82
2021/01/03 09:30:41;;;;;;;10.67;8.03;;;2.10;99.90;;;;;;5116359;27;20238;-84
2021/01/03 09:33:15;;;;;;;8.53;7.60;;;2.00;99.90;;;;;;5125357;27;20233;-83
2021/01/03 09:36:04;;;;;;;9.60;7.63;;;2.10;99.90;;;;;;5122223;27;20597;-82
2021/01/03 09:38:56;;;;;;;10.37;7.33;;;2.00;99.90;;;;;;5121452;27;20189;-82
2021/01/03 09:41:35;;;;;;;9.13;7.20;;;2.10;99.90;;;;;;5126340;27;20284;-82
2021/01/03 09:44:15;;;;;;;8.33;7.47;;;2.10;99.90;;;;;;5109049;28;20202;-83
2021/01/03 09:46:50;;;;;;;9.60;7.20;;;2.10;99.90;;;;;;5114141;27;20194;-82
2021/01/03 09:49:23;;;;;;;9.20;6.63;;;2.10;99.90;;;;;;5123697;27;20212;-82
2021/01/03 09:51:59;;;;;;;8.03;7.23;;;2.20;99.90;;;;;;5121114;27;20225;-82
2021/01/03 09:54:37;;;;;;;24.03;21.50;;;2.20;99.90;;;;;;5117808;27;20286;-79
2021/01/03 09:57:04;;;;;;;8.53;7.00;;;2.20;99.90;;;;;;5116351;27;20795;-81
2021/01/03 09:59:31;;;;;;;8.27;6.63;;;2.10;99.90;;;;;;5124569;27;20675;-82
2021/01/03 10:02:15;;;;;;;6.33;5.63;;;2.20;99.90;;;;;;5123410;27;20627;-83
2021/01/03 10:04:45;;;;;;;7.90;6.63;;;2.20;99.90;;;;;;5109277;28;20208;-83
2021/01/03 10:07:15;;;;;;;9.27;7.27;;;2.10;99.90;;;;;;5112106;27;20247;-82
2021/01/03 10:09:57;;;;;;;6.97;6.27;;;2.20;99.90;;;;;;5124754;27;20695;-83
2021/01/03 10:12:33;;;;;;;8.03;6.47;;;2.10;99.90;;;;;;5129639;27;20242;-82
2021/01/03 10:15:02;;;;;;;8.83;7.03;;;2.10;99.90;;;;;;5129214;27;20246;-82
2021/01/03 10:17:28;;;;;;;9.07;6.90;;;2.10;99.90;;;;;;5129445;27;20229;-82
2021/01/03 10:19:55;;;;;;;10.30;6.87;;;2.10;99.90;;;;;;5125817;27;20204;-81
2021/01/03 10:22:32;;;;;;;7.73;6.90;;;2.10;99.90;;;;;;5129680;27;20201;-82
2021/01/03 10:25:02;;;;;;;8.23;6.80;;;2.10;99.90;;;;;;5129426;27;20243;-82
2021/01/03 10:27:29;;;;;;;8.47;6.20;;;2.00;99.90;;;;;;5129715;27;20191;-83
2021/01/03 10:29:55;;;;;;;10.07;6.40;;;2.10;99.90;;;;;;5129646;27;20248;-81
2021/01/03 10:32:22;;;;;;;9.20;6.70;;;2.00;99.90;;;;;;5126229;27;20255;-82
2021/01/03 10:34:49;;;;;;;8.90;6.70;;;2.00;99.90;;;;;;5108621;28;20229;-84
2021/01/03 10:37:16;;;;;;;11.50;9.67;;;2.00;99.90;;;;;;5111753;27;20204;-85
2021/01/03 10:39:44;;;;;;;13.37;12.03;;;2.00;99.90;;;;;;5120090;27;20236;-88
2021/01/03 10:42:12;;;;;;;9.33;6.90;;;2.00;99.90;;;;;;5120460;27;20630;-83
2021/01/03 10:44:38;;;;;;;8.50;6.90;;;2.00;99.90;;;;;;5128523;27;20205;-83
2021/01/03 10:47:05;;;;;;;7.43;6.70;;;2.00;99.90;;;;;;5118777;27;20197;-82
2021/01/03 10:49:31;;;;;;;8.23;6.17;;;2.00;99.90;;;;;;5122715;27;20340;-82
2021/01/03 10:51:58;;;;;;;7.17;6.03;;;2.00;99.90;;;;;;5127842;27;20211;-82
2021/01/03 10:54:26;;;;;;;7.53;6.23;;;2.00;99.90;;;;;;5127572;27;20742;-82
2021/01/03 10:56:55;;;;;;;8.80;6.33;;;2.10;99.90;;;;;;5120990;27;20225;-82
2021/01/03 10:59:23;;;;;;;7.73;6.27;;;2.10;99.90;;;;;;5114754;28;20205;-82
2021/01/03 11:01:49;;;;;;;8.63;6.20;;;2.10;99.90;;;;;;5127964;27;20611;-83
2021/01/03 11:04:17;;;;;;;6.97;6.20;;;2.10;99.90;;;;;;5127970;27;20727;-82
2021/01/03 11:06:46;;;;;;;7.87;6.20;;;2.10;99.90;;;;;;5127620;27;20300;-83
2021/01/03 11:09:17;;;;;;;7.33;6.20;;;2.10;99.90;;;;;;5127511;27;20219;-84
2021/01/03 11:11:43;;;;;;;6.67;5.73;;;2.10;99.90;;;;;;5128244;27;20210;-82
2021/01/03 11:14:10;;;;;;;6.70;5.77;;;2.10;99.90;;;;;;5127905;27;20659;-82
2021/01/03 11:16:39;;;;;;;7.63;6.27;;;2.20;99.90;;;;;;5128288;27;20221;-82
2021/01/03 11:19:08;;;;;;;7.57;6.17;;;2.20;99.90;;;;;;5127731;27;20622;-82
2021/01/03 11:21:34;;;;;;;7.00;5.97;;;2.20;99.90;;;;;;5126989;27;20215;-83
2021/01/03 11:24:01;;;;;;;6.57;5.63;;;2.20;99.90;;;;;;5123661;27;20202;-83
2021/01/03 11:26:30;;;;;;;6.47;5.53;;;2.20;99.90;;;;;;5121909;27;20204;-83
2021/01/03 11:28:57;;;;;;;7.70;6.00;;;2.20;99.90;;;;;;5126619;27;20213;-84
2021/01/03 11:31:30;;;;;;;8.90;6.07;;;2.10;99.90;;;;;;5127616;27;20212;-84
2021/01/03 11:33:57;;;;;;;6.27;5.67;;;2.10;99.90;;;;;;5128160;27;20196;-83
2021/01/03 11:36:23;;;;;;;8.40;5.70;;;2.10;99.90;;;;;;5128144;27;20265;-82
2021/01/03 11:38:50;;;;;;;7.00;6.10;;;2.10;99.90;;;;;;5127989;27;20641;-82
2021/01/03 11:41:16;;;;;;;6.70;5.77;;;2.10;99.90;;;;;;5126021;27;20320;-81
2021/01/03 11:43:42;;;;;;;6.40;5.70;;;2.10;99.90;;;;;;5124652;28;20198;-82
2021/01/03 11:46:09;;;;;;;6.20;5.60;;;2.20;99.90;;;;;;5126493;27;20680;-82
2021/01/03 11:48:35;;;;;;;7.67;5.47;;;2.20;99.90;;;;;;5126517;27;20217;-82
2021/01/03 11:51:02;;;;;;;6.40;5.63;;;2.20;99.90;;;;;;5126672;27;20723;-82
2021/01/03 11:53:29;;;;;;;6.53;5.93;;;2.20;99.90;;;;;;5126676;27;20604;-79
2021/01/03 11:55:55;;;;;;;7.63;6.87;;;2.20;99.90;;;;;;5129502;27;20239;-81
2021/01/03 11:58:21;;;;;;;5.97;5.37;;;2.20;99.90;;;;;;5128099;27;20593;-83
2021/01/03 12:00:51;;;;;;;6.57;4.97;;;2.20;99.90;;;;;;5120799;27;20216;-82
2021/01/03 12:03:18;;;;;;;5.63;5.10;;;2.20;99.90;;;;;;5120742;27;20242;-82
2021/01/03 12:05:44;;;;;;;5.33;4.83;;;2.20;99.90;;;;;;5111035;28;20328;-82
2021/01/03 12:08:12;;;;;;;5.53;5.03;;;2.20;99.90;;;;;;5111401;28;20297;-82
2021/01/03 12:10:38;;;;;;;5.20;4.80;;;2.20;99.90;;;;;;5110624;28;20229;-81
2021/01/03 12:13:05;;;;;;;5.57;5.03;;;2.10;99.90;;;;;;5110360;28;20206;-82
2021/01/03 12:15:32;;;;;;;5.47;4.97;;;2.10;99.90;;;;;;5112236;27;20257;-82
2021/01/03 12:17:58;;;;;;;6.13;5.20;;;2.10;99.90;;;;;;5119117;27;20288;-81
2021/01/03 12:20:25;;;;;;;5.20;4.70;;;2.10;99.90;;;;;;5131536;27;20244;-82
2021/01/03 12:22:51;;;;;;;6.10;4.40;;;2.20;99.90;;;;;;5122599;27;20226;-81
2021/01/03 12:25:18;;;;;;;6.87;5.43;;;2.20;99.90;;;;;;5127093;27;20690;-81
2021/01/03 12:27:45;;;;;;;5.33;4.87;;;2.20;99.90;;;;;;5131413;27;20663;-82
2021/01/03 12:30:13;;;;;;;4.53;4.13;;;2.10;99.90;;;;;;5130967;27;20774;-82
2021/01/03 12:32:40;;;;;;;5.27;4.77;;;2.10;99.90;;;;;;5131432;27;20213;-83
2021/01/03 12:35:08;;;;;;;5.20;4.80;;;2.10;99.90;;;;;;5131233;27;20204;-82
2021/01/03 12:37:37;;;;;;;4.73;4.33;;;2.10;99.90;;;;;;5130707;27;20288;-82
2021/01/03 12:40:05;;;;;;;4.93;4.43;;;2.10;99.90;;;;;;5131000;27;20244;-82
2021/01/03 12:42:32;;;;;;;5.40;4.90;;;2.10;99.90;;;;;;5130831;27;20205;-82
2021/01/03 12:44:59;;;;;;;4.63;4.30;;;2.10;99.90;;;;;;5130852;27;20206;-82
2021/01/03 12:47:25;;;;;;;4.97;4.57;;;2.10;99.90;;;;;;5131164;27;20248;-82
2021/01/03 12:49:52;;;;;;;5.60;5.10;;;2.00;99.90;;;;;;5130461;27;20773;-81
2021/01/03 12:52:18;;;;;;;5.93;4.60;;;2.10;99.90;;;;;;5130609;27;20675;-82
2021/01/03 12:54:44;;;;;;;6.47;4.60;;;2.00;99.90;;;;;;5130681;27;20197;-82
2021/01/03 12:57:11;;;;;;;5.60;5.10;;;2.00;99.90;;;;;;5130158;27;20343;-82
2021/01/03 12:59:38;;;;;;;6.43;5.63;;;2.10;99.90;;;;;;5129524;27;20747;-80
2021/01/03 13:02:04;;;;;;;7.63;6.73;;;2.10;99.90;;;;;;5121352;27;20297;-84
2021/01/03 13:04:31;;;;;;;6.47;5.87;;;2.10;99.90;;;;;;5110124;28;20216;-82
2021/01/03 13:06:59;;;;;;;5.97;5.40;;;2.20;99.90;;;;;;5110961;27;20301;-82
2021/01/03 13:09:25;;;;;;;5.93;5.30;;;2.20;99.90;;;;;;5111174;28;20210;-83
2021/01/03 13:11:52;;;;;;;5.60;4.60;;;2.30;99.90;;;;;;5111810;28;20283;-83